sensor_id;sensor_type;location;lat;lon;timestamp;pressure;altitude;pressure_sealevel;temperature;humidity
30724;BME280;17473;52.286;20.930;2022-09-30T00:01:35;99729.16;;;7.07;97.10
30724;BME280;17473;52.286;20.930;2022-09-30T00:04:03;99730.31;;;7.15;96.50
30724;BME280;17473;52.286;20.930;2022-09-30T00:06:31;99723.09;;;7.09;96.47
30724;BME280;17473;52.286;20.930;2022-09-30T00:08:58;99725.16;;;6.94;97.17
30724;BME280;17473;52.286;20.930;2022-09-30T00:11:29;99725.03;;;6.91;97.46
30724;BME280;17473;52.286;20.930;2022-09-30T00:13:57;99714.88;;;7.00;96.88
30724;BME280;17473;52.286;20.930;2022-09-30T00:16:28;99712.91;;;6.94;97.07
30724;BME280;17473;52.286;20.930;2022-09-30T00:18:56;99719.59;;;6.86;97.70
30724;BME280;17473;52.286;20.930;2022-09-30T00:21:26;99722.81;;;7.01;97.15
30724;BME280;17473;52.286;20.930;2022-09-30T00:23:55;99726.09;;;6.96;97.05
30724;BME280;17473;52.286;20.930;2022-09-30T00:26:23;99722.75;;;6.77;98.02
30724;BME280;17473;52.286;20.930;2022-09-30T00:28:53;99727.78;;;6.71;98.33
30724;BME280;17473;52.286;20.930;2022-09-30T00:31:22;99733.75;;;6.67;99.28
30724;BME280;17473;52.286;20.930;2022-09-30T00:33:49;99735.41;;;6.65;99.57
30724;BME280;17473;52.286;20.930;2022-09-30T00:39:16;99736.56;;;6.71;99.33
30724;BME280;17473;52.286;20.930;2022-09-30T00:41:46;99727.81;;;6.72;98.44
30724;BME280;17473;52.286;20.930;2022-09-30T00:50:32;99734.03;;;6.52;99.08
30724;BME280;17473;52.286;20.930;2022-09-30T00:56:19;99733.25;;;6.54;99.24
30724;BME280;17473;52.286;20.930;2022-09-30T00:58:55;99733.13;;;6.51;100.00
30724;BME280;17473;52.286;20.930;2022-09-30T01:01:25;99741.09;;;6.53;99.85
30724;BME280;17473;52.286;20.930;2022-09-30T01:04:02;99727.78;;;6.48;99.53
30724;BME280;17473;52.286;20.930;2022-09-30T01:06:31;99727.97;;;6.53;99.74
30724;BME280;17473;52.286;20.930;2022-09-30T01:09:00;99721.66;;;6.70;99.86
30724;BME280;17473;52.286;20.930;2022-09-30T01:11:28;99746.03;;;6.68;100.00
30724;BME280;17473;52.286;20.930;2022-09-30T01:14:14;99731.84;;;6.63;100.00
30724;BME280;17473;52.286;20.930;2022-09-30T01:22:43;99722.09;;;6.37;99.28
30724;BME280;17473;52.286;20.930;2022-09-30T01:25:42;99718.00;;;6.44;99.03
30724;BME280;17473;52.286;20.930;2022-09-30T01:39:28;99740.31;;;6.55;98.09
30724;BME280;17473;52.286;20.930;2022-09-30T01:42:26;99739.56;;;6.60;97.72
30724;BME280;17473;52.286;20.930;2022-09-30T01:45:08;99737.06;;;6.40;98.09
30724;BME280;17473;52.286;20.930;2022-09-30T01:47:50;99746.19;;;6.50;97.86
30724;BME280;17473;52.286;20.930;2022-09-30T01:51:05;99743.44;;;6.47;98.23
30724;BME280;17473;52.286;20.930;2022-09-30T01:54:07;99751.44;;;6.50;98.32
30724;BME280;17473;52.286;20.930;2022-09-30T01:56:48;99769.56;;;6.44;98.10
30724;BME280;17473;52.286;20.930;2022-09-30T01:59:39;99766.50;;;6.54;97.82
30724;BME280;17473;52.286;20.930;2022-09-30T02:02:19;99766.53;;;6.55;97.40
30724;BME280;17473;52.286;20.930;2022-09-30T02:05:04;99774.72;;;6.42;97.39
30724;BME280;17473;52.286;20.930;2022-09-30T02:07:54;99768.28;;;6.34;97.53
30724;BME280;17473;52.286;20.930;2022-09-30T02:10:33;99784.84;;;6.11;98.12
30724;BME280;17473;52.286;20.930;2022-09-30T02:13:19;99781.44;;;6.14;98.36
30724;BME280;17473;52.286;20.930;2022-09-30T02:15:53;99778.28;;;6.21;99.04
30724;BME280;17473;52.286;20.930;2022-09-30T02:18:40;99786.13;;;6.00;99.54
30724;BME280;17473;52.286;20.930;2022-09-30T02:21:10;99790.47;;;6.00;99.00
30724;BME280;17473;52.286;20.930;2022-09-30T02:23:41;99789.47;;;5.98;98.28
30724;BME280;17473;52.286;20.930;2022-09-30T02:26:19;99789.16;;;5.90;98.37
30724;BME280;17473;52.286;20.930;2022-09-30T02:28:57;99794.41;;;5.90;98.00
30724;BME280;17473;52.286;20.930;2022-09-30T02:31:33;99792.50;;;5.87;98.73
30724;BME280;17473;52.286;20.930;2022-09-30T02:34:11;99798.88;;;5.92;98.56
30724;BME280;17473;52.286;20.930;2022-09-30T02:37:06;99798.03;;;5.93;98.72
30724;BME280;17473;52.286;20.930;2022-09-30T02:42:25;99795.72;;;6.00;99.64
30724;BME280;17473;52.286;20.930;2022-09-30T02:45:08;99802.81;;;6.02;98.27
30724;BME280;17473;52.286;20.930;2022-09-30T02:58:56;99821.69;;;6.15;97.82
30724;BME280;17473;52.286;20.930;2022-09-30T03:01:23;99816.09;;;6.07;98.15
30724;BME280;17473;52.286;20.930;2022-09-30T03:03:59;99819.28;;;6.00;97.92
30724;BME280;17473;52.286;20.930;2022-09-30T03:06:29;99818.19;;;5.94;99.51
30724;BME280;17473;52.286;20.930;2022-09-30T03:08:56;99806.59;;;6.09;100.00
30724;BME280;17473;52.286;20.930;2022-09-30T03:11:25;99811.63;;;6.04;100.00
30724;BME280;17473;52.286;20.930;2022-09-30T03:14:30;99815.47;;;6.13;100.00
30724;BME280;17473;52.286;20.930;2022-09-30T03:17:35;99823.84;;;6.04;100.00
30724;BME280;17473;52.286;20.930;2022-09-30T03:20:34;99818.66;;;5.86;100.00
30724;BME280;17473;52.286;20.930;2022-09-30T03:31:37;99825.22;;;5.95;99.46
30724;BME280;17473;52.286;20.930;2022-09-30T03:37:18;99837.69;;;6.01;99.16
30724;BME280;17473;52.286;20.930;2022-09-30T03:40:07;99831.53;;;5.99;98.89
30724;BME280;17473;52.286;20.930;2022-09-30T03:42:55;99813.81;;;5.95;99.67
30724;BME280;17473;52.286;20.930;2022-09-30T03:45:36;99814.78;;;5.97;99.84
30724;BME280;17473;52.286;20.930;2022-09-30T03:48:08;99820.59;;;6.09;99.59
30724;BME280;17473;52.286;20.930;2022-09-30T03:50:37;99816.69;;;6.00;100.00
30724;BME280;17473;52.286;20.930;2022-09-30T03:53:11;99814.22;;;6.24;98.82
30724;BME280;17473;52.286;20.930;2022-09-30T03:55:48;99827.25;;;6.22;98.90
30724;BME280;17473;52.286;20.930;2022-09-30T03:58:18;99824.69;;;6.24;98.62
30724;BME280;17473;52.286;20.930;2022-09-30T04:00:49;99827.06;;;6.18;98.79
30724;BME280;17473;52.286;20.930;2022-09-30T04:03:20;99819.84;;;6.12;99.02
30724;BME280;17473;52.286;20.930;2022-09-30T04:05:48;99824.69;;;6.03;99.75
30724;BME280;17473;52.286;20.930;2022-09-30T04:08:15;99827.53;;;5.89;99.65
30724;BME280;17473;52.286;20.930;2022-09-30T04:10:43;99826.53;;;6.05;99.85
30724;BME280;17473;52.286;20.930;2022-09-30T04:13:11;99830.81;;;6.03;99.40
30724;BME280;17473;52.286;20.930;2022-09-30T04:15:39;99833.97;;;6.16;98.92
30724;BME280;17473;52.286;20.930;2022-09-30T04:18:06;99846.09;;;6.14;98.23
30724;BME280;17473;52.286;20.930;2022-09-30T04:20:33;99843.81;;;6.00;98.70
30724;BME280;17473;52.286;20.930;2022-09-30T04:23:00;99841.56;;;6.09;98.93
30724;BME280;17473;52.286;20.930;2022-09-30T04:25:27;99857.09;;;6.05;98.73
30724;BME280;17473;52.286;20.930;2022-09-30T04:27:55;99863.06;;;6.22;99.43
30724;BME280;17473;52.286;20.930;2022-09-30T04:30:22;99867.28;;;6.18;98.17
30724;BME280;17473;52.286;20.930;2022-09-30T04:32:53;99863.88;;;6.21;98.27
30724;BME280;17473;52.286;20.930;2022-09-30T04:35:20;99877.38;;;6.30;97.49
30724;BME280;17473;52.286;20.930;2022-09-30T04:37:47;99876.69;;;6.13;98.76
30724;BME280;17473;52.286;20.930;2022-09-30T04:40:15;99871.28;;;6.10;98.83
30724;BME280;17473;52.286;20.930;2022-09-30T04:42:43;99878.19;;;6.08;99.24
30724;BME280;17473;52.286;20.930;2022-09-30T04:45:12;99882.88;;;5.95;99.77
30724;BME280;17473;52.286;20.930;2022-09-30T04:47:43;99883.44;;;6.08;99.74
30724;BME280;17473;52.286;20.930;2022-09-30T04:50:11;99883.53;;;6.09;99.32
30724;BME280;17473;52.286;20.930;2022-09-30T04:52:41;99878.44;;;6.14;99.15
30724;BME280;17473;52.286;20.930;2022-09-30T04:55:10;99881.66;;;6.28;98.20
30724;BME280;17473;52.286;20.930;2022-09-30T04:57:37;99879.78;;;6.45;97.89
30724;BME280;17473;52.286;20.930;2022-09-30T05:00:05;99886.03;;;6.49;97.00
30724;BME280;17473;52.286;20.930;2022-09-30T05:02:35;99891.81;;;6.40;98.09
30724;BME280;17473;52.286;20.930;2022-09-30T05:05:03;99894.78;;;6.28;98.71
30724;BME280;17473;52.286;20.930;2022-09-30T05:07:30;99898.09;;;6.44;98.29
30724;BME280;17473;52.286;20.930;2022-09-30T05:09:57;99900.75;;;6.45;97.92
30724;BME280;17473;52.286;20.930;2022-09-30T05:12:25;99902.75;;;6.51;97.86
30724;BME280;17473;52.286;20.930;2022-09-30T05:14:52;99919.72;;;6.59;98.07
30724;BME280;17473;52.286;20.930;2022-09-30T05:17:19;99921.50;;;6.60;97.58
30724;BME280;17473;52.286;20.930;2022-09-30T05:19:45;99915.75;;;6.90;97.04
30724;BME280;17473;52.286;20.930;2022-09-30T05:22:13;99910.34;;;7.08;95.66
30724;BME280;17473;52.286;20.930;2022-09-30T05:24:40;99903.47;;;7.12;95.24
30724;BME280;17473;52.286;20.930;2022-09-30T05:27:07;99899.31;;;7.17;95.22
30724;BME280;17473;52.286;20.930;2022-09-30T05:29:34;99900.16;;;7.16;94.15
30724;BME280;17473;52.286;20.930;2022-09-30T05:32:01;99901.59;;;7.30;93.14
30724;BME280;17473;52.286;20.930;2022-09-30T05:34:28;99911.97;;;7.50;92.14
30724;BME280;17473;52.286;20.930;2022-09-30T05:36:56;99917.75;;;7.41;93.08
30724;BME280;17473;52.286;20.930;2022-09-30T05:39:23;99917.28;;;7.51;93.48
30724;BME280;17473;52.286;20.930;2022-09-30T05:41:50;99924.38;;;7.77;92.37
30724;BME280;17473;52.286;20.930;2022-09-30T05:44:17;99939.94;;;7.71;92.36
30724;BME280;17473;52.286;20.930;2022-09-30T05:46:45;99933.31;;;7.82;91.29
30724;BME280;17473;52.286;20.930;2022-09-30T05:49:12;99940.56;;;7.88;90.80
30724;BME280;17473;52.286;20.930;2022-09-30T05:51:40;99937.44;;;7.98;90.40
30724;BME280;17473;52.286;20.930;2022-09-30T05:54:09;99942.53;;;8.18;88.83
30724;BME280;17473;52.286;20.930;2022-09-30T05:56:36;99929.97;;;8.35;86.98
30724;BME280;17473;52.286;20.930;2022-09-30T05:59:06;99930.72;;;8.30;87.50
30724;BME280;17473;52.286;20.930;2022-09-30T06:01:33;99942.78;;;8.48;86.97
30724;BME280;17473;52.286;20.930;2022-09-30T06:04:00;99947.84;;;8.19;88.04
30724;BME280;17473;52.286;20.930;2022-09-30T06:06:27;99941.28;;;8.82;86.12
30724;BME280;17473;52.286;20.930;2022-09-30T06:08:56;99948.97;;;9.02;85.20
30724;BME280;17473;52.286;20.930;2022-09-30T06:11:23;99949.63;;;10.73;77.79
30724;BME280;17473;52.286;20.930;2022-09-30T06:13:50;99959.19;;;11.78;71.91
30724;BME280;17473;52.286;20.930;2022-09-30T06:16:18;99949.41;;;11.73;71.28
30724;BME280;17473;52.286;20.930;2022-09-30T06:18:45;99953.19;;;12.26;70.12
30724;BME280;17473;52.286;20.930;2022-09-30T06:21:15;99957.56;;;13.24;66.32
30724;BME280;17473;52.286;20.930;2022-09-30T06:23:43;99964.84;;;14.68;61.01
30724;BME280;17473;52.286;20.930;2022-09-30T06:26:12;99955.28;;;16.17;55.32
30724;BME280;17473;52.286;20.930;2022-09-30T06:28:41;99949.22;;;17.76;50.65
30724;BME280;17473;52.286;20.930;2022-09-30T06:31:08;99957.09;;;18.27;48.75
30724;BME280;17473;52.286;20.930;2022-09-30T06:33:36;99963.28;;;18.38;47.83
30724;BME280;17473;52.286;20.930;2022-09-30T06:36:04;99961.75;;;17.40;49.93
30724;BME280;17473;52.286;20.930;2022-09-30T06:38:33;99958.19;;;16.96;52.16
30724;BME280;17473;52.286;20.930;2022-09-30T06:41:03;99965.19;;;16.50;52.85
30724;BME280;17473;52.286;20.930;2022-09-30T06:43:31;99966.06;;;18.12;49.30
30724;BME280;17473;52.286;20.930;2022-09-30T06:46:14;99968.25;;;19.02;47.06
30724;BME280;17473;52.286;20.930;2022-09-30T06:48:55;99964.38;;;17.58;49.92
30724;BME280;17473;52.286;20.930;2022-09-30T06:51:36;99962.19;;;18.75;47.95
30724;BME280;17473;52.286;20.930;2022-09-30T06:54:03;99959.34;;;19.03;46.42
30724;BME280;17473;52.286;20.930;2022-09-30T06:56:30;99974.63;;;18.82;46.57
30724;BME280;17473;52.286;20.930;2022-09-30T06:58:57;99960.84;;;19.39;45.71
30724;BME280;17473;52.286;20.930;2022-09-30T07:01:24;99966.00;;;19.60;45.17
30724;BME280;17473;52.286;20.930;2022-09-30T07:03:53;99969.63;;;19.52;45.34
30724;BME280;17473;52.286;20.930;2022-09-30T07:06:24;99965.13;;;18.27;48.41
30724;BME280;17473;52.286;20.930;2022-09-30T07:08:54;99969.59;;;18.15;48.98
30724;BME280;17473;52.286;20.930;2022-09-30T07:11:22;99975.03;;;17.92;50.09
30724;BME280;17473;52.286;20.930;2022-09-30T07:13:50;99975.13;;;19.38;46.20
30724;BME280;17473;52.286;20.930;2022-09-30T07:16:18;99975.00;;;20.33;44.33
30724;BME280;17473;52.286;20.930;2022-09-30T07:18:47;99974.13;;;19.49;45.26
30724;BME280;17473;52.286;20.930;2022-09-30T07:21:15;99975.06;;;17.69;49.02
30724;BME280;17473;52.286;20.930;2022-09-30T07:23:46;99972.03;;;19.79;45.12
30724;BME280;17473;52.286;20.930;2022-09-30T07:26:16;99982.00;;;20.45;43.87
30724;BME280;17473;52.286;20.930;2022-09-30T07:28:44;99984.44;;;19.92;44.30
30724;BME280;17473;52.286;20.930;2022-09-30T07:31:18;99997.94;;;19.78;45.13
30724;BME280;17473;52.286;20.930;2022-09-30T07:34:00;99990.13;;;17.93;49.39
30724;BME280;17473;52.286;20.930;2022-09-30T07:36:28;100009.66;;;16.67;52.27
30724;BME280;17473;52.286;20.930;2022-09-30T07:39:01;100001.47;;;16.13;53.73
30724;BME280;17473;52.286;20.930;2022-09-30T07:41:35;99999.03;;;15.22;56.60
30724;BME280;17473;52.286;20.930;2022-09-30T07:44:09;100007.78;;;15.10;58.33
30724;BME280;17473;52.286;20.930;2022-09-30T07:46:40;100007.44;;;15.77;57.15
30724;BME280;17473;52.286;20.930;2022-09-30T07:49:15;100006.72;;;16.02;56.18
30724;BME280;17473;52.286;20.930;2022-09-30T07:51:56;100014.16;;;15.30;58.27
30724;BME280;17473;52.286;20.930;2022-09-30T07:54:29;100022.06;;;15.18;59.44
30724;BME280;17473;52.286;20.930;2022-09-30T07:56:58;100019.94;;;15.86;58.14
30724;BME280;17473;52.286;20.930;2022-09-30T07:59:41;100031.09;;;17.05;54.96
30724;BME280;17473;52.286;20.930;2022-09-30T08:02:15;100039.09;;;16.95;54.60
30724;BME280;17473;52.286;20.930;2022-09-30T08:04:42;100030.22;;;17.45;53.47
30724;BME280;17473;52.286;20.930;2022-09-30T08:07:12;100026.66;;;17.62;53.25
30724;BME280;17473;52.286;20.930;2022-09-30T08:09:40;100032.03;;;17.52;53.60
30724;BME280;17473;52.286;20.930;2022-09-30T08:12:07;100041.75;;;16.98;54.82
30724;BME280;17473;52.286;20.930;2022-09-30T08:14:34;100040.78;;;16.82;55.41
30724;BME280;17473;52.286;20.930;2022-09-30T08:17:02;100036.38;;;16.88;55.19
30724;BME280;17473;52.286;20.930;2022-09-30T08:19:29;100042.63;;;17.00;55.80
30724;BME280;17473;52.286;20.930;2022-09-30T08:21:59;100054.94;;;16.61;56.41
30724;BME280;17473;52.286;20.930;2022-09-30T08:24:26;100050.28;;;16.11;58.12
30724;BME280;17473;52.286;20.930;2022-09-30T08:26:54;100049.59;;;16.64;56.44
30724;BME280;17473;52.286;20.930;2022-09-30T08:29:21;100038.75;;;16.14;57.78
30724;BME280;17473;52.286;20.930;2022-09-30T08:32:08;100042.25;;;16.08;58.12
30724;BME280;17473;52.286;20.930;2022-09-30T08:34:35;100043.88;;;15.88;59.23
30724;BME280;17473;52.286;20.930;2022-09-30T08:37:03;100057.19;;;15.86;59.32
30724;BME280;17473;52.286;20.930;2022-09-30T08:39:38;100054.25;;;15.51;61.01
30724;BME280;17473;52.286;20.930;2022-09-30T08:42:23;100057.94;;;15.68;61.39
30724;BME280;17473;52.286;20.930;2022-09-30T08:45:25;100062.44;;;15.77;61.32
30724;BME280;17473;52.286;20.930;2022-09-30T08:51:21;100060.88;;;15.03;63.30
30724;BME280;17473;52.286;20.930;2022-09-30T08:53:54;100058.50;;;15.33;62.34
30724;BME280;17473;52.286;20.930;2022-09-30T08:56:30;100072.63;;;15.24;63.08
30724;BME280;17473;52.286;20.930;2022-09-30T08:59:34;100064.09;;;14.70;65.53
30724;BME280;17473;52.286;20.930;2022-09-30T09:03:10;100063.38;;;14.90;65.37
30724;BME280;17473;52.286;20.930;2022-09-30T09:08:36;100077.06;;;14.48;66.13
30724;BME280;17473;52.286;20.930;2022-09-30T09:17:31;100069.25;;;14.61;67.44
30724;BME280;17473;52.286;20.930;2022-09-30T09:20:19;100065.19;;;14.23;68.00
30724;BME280;17473;52.286;20.930;2022-09-30T09:22:49;100070.28;;;14.06;67.54
30724;BME280;17473;52.286;20.930;2022-09-30T09:25:22;100077.31;;;14.04;67.69
30724;BME280;17473;52.286;20.930;2022-09-30T09:28:04;100073.03;;;14.14;67.30
30724;BME280;17473;52.286;20.930;2022-09-30T09:30:39;100075.97;;;13.72;68.38
30724;BME280;17473;52.286;20.930;2022-09-30T09:33:23;100076.81;;;13.71;68.26
30724;BME280;17473;52.286;20.930;2022-09-30T09:36:13;100081.69;;;13.45;68.85
30724;BME280;17473;52.286;20.930;2022-09-30T09:39:14;100085.75;;;13.27;69.39
30724;BME280;17473;52.286;20.930;2022-09-30T09:42:18;100081.03;;;13.09;70.83
30724;BME280;17473;52.286;20.930;2022-09-30T09:45:22;100079.75;;;13.36;70.43
30724;BME280;17473;52.286;20.930;2022-09-30T09:47:52;100071.59;;;13.74;68.35
30724;BME280;17473;52.286;20.930;2022-09-30T09:50:33;100065.75;;;13.43;69.49
30724;BME280;17473;52.286;20.930;2022-09-30T09:53:27;100076.16;;;13.33;69.54
30724;BME280;17473;52.286;20.930;2022-09-30T09:56:00;100072.28;;;13.64;68.51
30724;BME280;17473;52.286;20.930;2022-09-30T09:58:29;100070.22;;;13.46;69.02
30724;BME280;17473;52.286;20.930;2022-09-30T10:01:09;100068.16;;;13.83;67.72
30724;BME280;17473;52.286;20.930;2022-09-30T10:06:59;100062.13;;;13.92;66.38
30724;BME280;17473;52.286;20.930;2022-09-30T10:09:36;100055.81;;;13.84;66.57
30724;BME280;17473;52.286;20.930;2022-09-30T10:15:00;100060.50;;;14.69;65.69
30724;BME280;17473;52.286;20.930;2022-09-30T10:17:30;100057.44;;;15.12;63.59
30724;BME280;17473;52.286;20.930;2022-09-30T10:22:42;100050.47;;;15.24;64.11
30724;BME280;17473;52.286;20.930;2022-09-30T10:25:19;100056.97;;;15.58;62.55
30724;BME280;17473;52.286;20.930;2022-09-30T10:27:58;100060.34;;;15.39;61.18
30724;BME280;17473;52.286;20.930;2022-09-30T10:30:58;100064.81;;;15.43;60.84
30724;BME280;17473;52.286;20.930;2022-09-30T10:33:42;100060.50;;;15.54;60.82
30724;BME280;17473;52.286;20.930;2022-09-30T10:36:19;100064.59;;;15.20;62.28
30724;BME280;17473;52.286;20.930;2022-09-30T10:41:32;100082.59;;;15.50;61.51
30724;BME280;17473;52.286;20.930;2022-09-30T10:44:04;100081.00;;;14.80;62.97
30724;BME280;17473;52.286;20.930;2022-09-30T10:46:36;100075.81;;;14.88;62.36
30724;BME280;17473;52.286;20.930;2022-09-30T10:52:31;100072.28;;;14.92;63.57
30724;BME280;17473;52.286;20.930;2022-09-30T10:55:13;100069.91;;;15.18;62.78
30724;BME280;17473;52.286;20.930;2022-09-30T10:57:52;100072.66;;;15.29;62.07
30724;BME280;17473;52.286;20.930;2022-09-30T11:00:22;100062.72;;;15.09;62.01
30724;BME280;17473;52.286;20.930;2022-09-30T11:03:04;100072.53;;;15.16;60.64
30724;BME280;17473;52.286;20.930;2022-09-30T11:05:39;100068.31;;;15.36;60.58
30724;BME280;17473;52.286;20.930;2022-09-30T11:08:29;100074.41;;;15.27;60.12
30724;BME280;17473;52.286;20.930;2022-09-30T11:11:13;100070.69;;;15.11;60.98
30724;BME280;17473;52.286;20.930;2022-09-30T11:14:03;100069.78;;;15.04;62.15
30724;BME280;17473;52.286;20.930;2022-09-30T11:16:46;100067.53;;;15.47;60.25
30724;BME280;17473;52.286;20.930;2022-09-30T11:19:25;100072.53;;;15.16;60.17
30724;BME280;17473;52.286;20.930;2022-09-30T11:22:27;100071.50;;;15.00;60.51
30724;BME280;17473;52.286;20.930;2022-09-30T11:24:55;100063.78;;;15.27;60.01
30724;BME280;17473;52.286;20.930;2022-09-30T11:27:45;100071.78;;;15.28;58.00
30724;BME280;17473;52.286;20.930;2022-09-30T11:30:42;100070.09;;;15.38;57.96
30724;BME280;17473;52.286;20.930;2022-09-30T11:39:39;100069.41;;;15.62;58.28
30724;BME280;17473;52.286;20.930;2022-09-30T11:48:59;100068.03;;;15.08;58.53
30724;BME280;17473;52.286;20.930;2022-09-30T11:52:08;100073.34;;;15.08;58.87
30724;BME280;17473;52.286;20.930;2022-09-30T11:55:06;100074.16;;;15.00;58.35
30724;BME280;17473;52.286;20.930;2022-09-30T11:57:52;100072.97;;;14.74;59.60
30724;BME280;17473;52.286;20.930;2022-09-30T12:00:22;100064.13;;;14.75;59.87
30724;BME280;17473;52.286;20.930;2022-09-30T12:02:55;100071.22;;;14.76;60.51
30724;BME280;17473;52.286;20.930;2022-09-30T12:05:35;100069.78;;;15.06;59.92
30724;BME280;17473;52.286;20.930;2022-09-30T12:11:35;100069.56;;;14.87;59.24
30724;BME280;17473;52.286;20.930;2022-09-30T12:14:22;100065.13;;;14.84;58.86
30724;BME280;17473;52.286;20.930;2022-09-30T12:16:51;100065.00;;;14.74;59.73
30724;BME280;17473;52.286;20.930;2022-09-30T12:19:37;100065.84;;;14.71;60.30
30724;BME280;17473;52.286;20.930;2022-09-30T12:22:15;100058.78;;;14.71;60.28
30724;BME280;17473;52.286;20.930;2022-09-30T12:24:44;100061.28;;;14.64;60.60
30724;BME280;17473;52.286;20.930;2022-09-30T12:27:29;100067.72;;;14.81;59.97
30724;BME280;17473;52.286;20.930;2022-09-30T12:30:18;100061.84;;;15.09;58.48
30724;BME280;17473;52.286;20.930;2022-09-30T12:42:20;100055.53;;;14.99;57.04
30724;BME280;17473;52.286;20.930;2022-09-30T12:45:22;100061.66;;;14.93;56.91
30724;BME280;17473;52.286;20.930;2022-09-30T12:47:59;100059.00;;;14.92;57.60
30724;BME280;17473;52.286;20.930;2022-09-30T12:50:34;100060.63;;;14.79;57.71
30724;BME280;17473;52.286;20.930;2022-09-30T12:53:30;100053.88;;;15.12;56.51
30724;BME280;17473;52.286;20.930;2022-09-30T12:56:13;100046.41;;;14.77;57.62
30724;BME280;17473;52.286;20.930;2022-09-30T12:58:47;100058.31;;;15.13;57.09
30724;BME280;17473;52.286;20.930;2022-09-30T13:01:27;100054.31;;;14.69;58.34
30724;BME280;17473;52.286;20.930;2022-09-30T13:14:37;100053.09;;;15.21;58.88
30724;BME280;17473;52.286;20.930;2022-09-30T13:19:49;100046.50;;;14.84;59.77
30724;BME280;17473;52.286;20.930;2022-09-30T13:27:52;100051.22;;;15.09;59.01
30724;BME280;17473;52.286;20.930;2022-09-30T13:33:26;100057.59;;;14.51;59.16
30724;BME280;17473;52.286;20.930;2022-09-30T13:35:57;100045.34;;;14.64;58.70
30724;BME280;17473;52.286;20.930;2022-09-30T13:38:38;100050.09;;;14.86;58.63
30724;BME280;17473;52.286;20.930;2022-09-30T13:41:24;100047.34;;;14.77;59.09
30724;BME280;17473;52.286;20.930;2022-09-30T13:44:08;100042.84;;;14.71;59.71
30724;BME280;17473;52.286;20.930;2022-09-30T13:46:48;100041.97;;;14.76;58.82
30724;BME280;17473;52.286;20.930;2022-09-30T13:51:55;100041.66;;;14.49;59.01
30724;BME280;17473;52.286;20.930;2022-09-30T13:54:30;100033.50;;;14.35;60.38
30724;BME280;17473;52.286;20.930;2022-09-30T13:57:02;100029.13;;;14.40;60.55
30724;BME280;17473;52.286;20.930;2022-09-30T13:59:58;100032.72;;;14.44;60.71
30724;BME280;17473;52.286;20.930;2022-09-30T14:03:11;100039.31;;;14.74;60.01
30724;BME280;17473;52.286;20.930;2022-09-30T14:06:42;100028.44;;;14.55;60.74
30724;BME280;17473;52.286;20.930;2022-09-30T14:09:33;100038.41;;;14.72;60.13
30724;BME280;17473;52.286;20.930;2022-09-30T14:12:28;100039.06;;;14.54;60.56
30724;BME280;17473;52.286;20.930;2022-09-30T14:21:38;100041.09;;;14.74;60.39
30724;BME280;17473;52.286;20.930;2022-09-30T14:24:37;100042.41;;;14.40;60.97
30724;BME280;17473;52.286;20.930;2022-09-30T14:30:15;100047.84;;;14.48;60.55
30724;BME280;17473;52.286;20.930;2022-09-30T14:32:57;100056.50;;;14.33;61.24
30724;BME280;17473;52.286;20.930;2022-09-30T14:35:31;100051.28;;;14.43;61.30
30724;BME280;17473;52.286;20.930;2022-09-30T14:38:17;100057.88;;;14.71;60.66
30724;BME280;17473;52.286;20.930;2022-09-30T14:40:54;100050.38;;;14.40;61.59
30724;BME280;17473;52.286;20.930;2022-09-30T14:43:30;100046.97;;;14.49;61.70
30724;BME280;17473;52.286;20.930;2022-09-30T14:49:00;100057.59;;;14.52;61.37
30724;BME280;17473;52.286;20.930;2022-09-30T14:51:40;100050.66;;;14.61;61.55
30724;BME280;17473;52.286;20.930;2022-09-30T14:54:24;100051.13;;;14.30;61.98
30724;BME280;17473;52.286;20.930;2022-09-30T14:57:00;100053.91;;;14.38;62.48
30724;BME280;17473;52.286;20.930;2022-09-30T14:59:32;100053.69;;;14.22;62.91
30724;BME280;17473;52.286;20.930;2022-09-30T15:04:49;100056.50;;;14.33;60.78
30724;BME280;17473;52.286;20.930;2022-09-30T15:07:17;100047.00;;;13.88;63.20
30724;BME280;17473;52.286;20.930;2022-09-30T15:09:46;100052.38;;;13.92;63.68
30724;BME280;17473;52.286;20.930;2022-09-30T15:12:21;100050.66;;;13.96;63.53
30724;BME280;17473;52.286;20.930;2022-09-30T15:14:54;100050.66;;;13.96;63.99
30724;BME280;17473;52.286;20.930;2022-09-30T15:17:29;100045.25;;;13.88;63.91
30724;BME280;17473;52.286;20.930;2022-09-30T15:20:03;100056.41;;;13.66;65.31
30724;BME280;17473;52.286;20.930;2022-09-30T15:22:48;100048.41;;;13.64;65.47
30724;BME280;17473;52.286;20.930;2022-09-30T15:25:18;100064.25;;;13.58;66.10
30724;BME280;17473;52.286;20.930;2022-09-30T15:27:45;100069.66;;;13.64;65.82
30724;BME280;17473;52.286;20.930;2022-09-30T15:30:21;100068.00;;;13.71;66.06
30724;BME280;17473;52.286;20.930;2022-09-30T15:32:57;100062.69;;;13.72;66.17
30724;BME280;17473;52.286;20.930;2022-09-30T15:35:24;100063.63;;;13.74;65.46
30724;BME280;17473;52.286;20.930;2022-09-30T15:37:52;100056.16;;;13.50;66.12
30724;BME280;17473;52.286;20.930;2022-09-30T15:40:22;100063.84;;;13.38;67.09
30724;BME280;17473;52.286;20.930;2022-09-30T15:43:11;100069.28;;;13.42;67.19
30724;BME280;17473;52.286;20.930;2022-09-30T15:45:43;100076.25;;;13.37;66.99
30724;BME280;17473;52.286;20.930;2022-09-30T15:50:48;100078.13;;;13.43;66.32
30724;BME280;17473;52.286;20.930;2022-09-30T15:53:44;100071.03;;;13.42;65.58
30724;BME280;17473;52.286;20.930;2022-09-30T15:56:36;100071.81;;;13.38;65.62
30724;BME280;17473;52.286;20.930;2022-09-30T15:59:11;100073.72;;;13.43;64.00
30724;BME280;17473;52.286;20.930;2022-09-30T16:01:47;100074.44;;;13.35;63.23
30724;BME280;17473;52.286;20.930;2022-09-30T16:07:05;100082.94;;;13.17;64.20